createdAt,value
2016-09-29T00:00:42.130Z,0
2016-09-29T00:01:41.693Z,0
2016-09-29T00:02:41.981Z,0
2016-09-29T00:03:41.700Z,0
2016-09-29T00:04:41.130Z,0
2016-09-29T00:05:42.016Z,0
2016-09-29T00:06:41.694Z,0
2016-09-29T00:07:41.620Z,0
2016-09-29T00:08:41.672Z,0
2016-09-29T00:09:41.315Z,0
2016-09-29T00:10:41.279Z,0
2016-09-29T00:11:41.413Z,0
2016-09-29T00:12:41.215Z,0
2016-09-29T00:13:41.367Z,0
2016-09-29T00:14:41.086Z,0
2016-09-29T00:15:41.114Z,0
2016-09-29T00:16:40.678Z,0
2016-09-29T00:17:41.428Z,0
2016-09-29T00:18:40.891Z,0
2016-09-29T00:19:41.155Z,0
2016-09-29T00:20:40.497Z,0
2016-09-29T00:21:41.072Z,0
2016-09-29T00:22:40.697Z,0
2016-09-29T00:23:40.961Z,0
2016-09-29T00:24:40.904Z,0
2016-09-29T00:25:40.539Z,0
2016-09-29T00:26:40.513Z,0
2016-09-29T00:27:40.457Z,0
2016-09-29T00:28:40.681Z,0
2016-09-29T00:29:40.050Z,0
2016-09-29T00:30:40.612Z,0
2016-09-29T00:31:40.631Z,0
2016-09-29T00:32:40.559Z,0
2016-09-29T00:33:40.566Z,0
2016-09-29T00:34:39.819Z,0
2016-09-29T00:35:40.395Z,0
2016-09-29T00:36:40.240Z,0
2016-09-29T00:37:40.301Z,0
2016-09-29T00:38:40.147Z,0
2016-09-29T00:39:39.914Z,0
2016-09-29T00:40:40.156Z,0
2016-09-29T00:41:40.299Z,0
2016-09-29T00:42:40.064Z,0
2016-09-29T00:43:40.016Z,0
2016-09-29T00:44:39.854Z,0
2016-09-29T00:45:40.130Z,0
2016-09-29T00:46:39.874Z,0
2016-09-29T00:47:39.828Z,0
2016-09-29T00:48:39.493Z,0
2016-09-29T00:49:39.781Z,0
2016-09-29T00:50:39.757Z,0
2016-09-29T00:51:39.628Z,0
2016-09-29T00:52:39.713Z,0
2016-09-29T00:53:39.544Z,0
2016-09-29T00:54:39.511Z,0
2016-09-29T00:55:39.154Z,0
2016-09-29T00:56:39.400Z,0
2016-09-29T00:57:39.084Z,0
2016-09-29T00:58:39.346Z,0
2016-09-29T00:59:38.943Z,0
2016-09-29T01:00:38.803Z,0
2016-09-29T01:01:39.159Z,0
2016-09-29T01:02:39.179Z,0
2016-09-29T01:03:38.781Z,0
2016-09-29T01:04:38.411Z,0
2016-09-29T01:05:39.042Z,0
2016-09-29T01:06:39.167Z,0
2016-09-29T01:07:38.335Z,0
2016-09-29T01:08:38.755Z,0
2016-09-29T01:09:38.918Z,0
2016-09-29T01:10:39.055Z,0
2016-09-29T01:11:38.597Z,0
2016-09-29T01:12:38.671Z,0
2016-09-29T01:13:38.525Z,0
2016-09-29T01:14:38.341Z,0
2016-09-29T01:15:38.510Z,0
2016-09-29T01:16:38.491Z,0
2016-09-29T01:17:38.127Z,0
2016-09-29T01:18:38.066Z,0
2016-09-29T01:19:37.960Z,0
2016-09-29T01:20:38.290Z,0
2016-09-29T01:21:37.927Z,0
2016-09-29T01:22:38.179Z,0
2016-09-29T01:23:37.877Z,0
2016-09-29T01:24:38.097Z,0
2016-09-29T01:25:38.315Z,0
2016-09-29T01:26:38.078Z,0
2016-09-29T01:27:37.664Z,0
2016-09-29T01:28:38.088Z,0
2016-09-29T01:29:37.542Z,0
2016-09-29T01:30:37.555Z,0
2016-09-29T01:31:37.152Z,0
2016-09-29T01:32:37.423Z,0
2016-09-29T01:33:37.659Z,0
2016-09-29T01:34:37.013Z,0
2016-09-29T01:35:37.270Z,0
2016-09-29T01:36:37.377Z,0
2016-09-29T01:37:37.176Z,0
2016-09-29T01:38:36.901Z,0
2016-09-29T01:39:37.387Z,0
2016-09-29T01:40:37.533Z,0
2016-09-29T01:41:37.177Z,0
2016-09-29T01:42:37.003Z,0
2016-09-29T01:43:37.214Z,0
2016-09-29T01:44:37.220Z,0
2016-09-29T01:45:37.035Z,0
2016-09-29T01:46:37.055Z,0
2016-09-29T01:47:37.007Z,0
2016-09-29T01:48:36.958Z,0
2016-09-29T01:49:36.929Z,0
2016-09-29T01:50:36.553Z,0
2016-09-29T01:51:37.032Z,0
2016-09-29T01:52:36.789Z,0
2016-09-29T01:53:36.928Z,0
2016-09-29T01:54:36.277Z,0
2016-09-29T01:55:36.367Z,0
2016-09-29T01:56:35.992Z,0
2016-09-29T01:57:35.837Z,0
2016-09-29T01:58:36.103Z,0
2016-09-29T01:59:36.136Z,0
2016-09-29T02:00:36.315Z,0
2016-09-29T02:01:36.510Z,0
2016-09-29T02:02:36.345Z,0
2016-09-29T02:03:36.297Z,0
2016-09-29T02:04:35.611Z,0
2016-09-29T02:05:36.051Z,0
2016-09-29T02:06:36.049Z,0
2016-09-29T02:07:35.979Z,0
2016-09-29T02:08:36.033Z,0
2016-09-29T02:09:35.884Z,0
2016-09-29T02:10:35.622Z,0
2016-09-29T02:11:35.880Z,0
2016-09-29T02:12:35.960Z,0
2016-09-29T02:13:36.002Z,0
2016-09-29T02:14:35.950Z,0
2016-09-29T02:15:35.083Z,0
2016-09-29T02:16:35.661Z,0
2016-09-29T02:17:35.487Z,0
2016-09-29T02:18:35.459Z,0
2016-09-29T02:19:35.383Z,0
2016-09-29T02:20:35.460Z,0
2016-09-29T02:21:35.814Z,0
2016-09-29T02:22:34.933Z,0
2016-09-29T02:23:35.001Z,0
2016-09-29T02:24:34.986Z,0
2016-09-29T02:25:35.823Z,0
2016-09-29T02:26:35.072Z,0
2016-09-29T02:27:34.820Z,0
2016-09-29T02:28:34.766Z,0
2016-09-29T02:29:35.220Z,0
2016-09-29T02:30:34.684Z,0
2016-09-29T02:31:35.155Z,0
2016-09-29T02:32:35.690Z,0
2016-09-29T02:33:34.723Z,0
2016-09-29T02:34:35.427Z,0
2016-09-29T02:35:34.528Z,0
2016-09-29T02:36:34.942Z,0
2016-09-29T02:37:34.542Z,0
2016-09-29T02:38:34.019Z,0
2016-09-29T02:39:34.655Z,0
2016-09-29T02:40:34.758Z,0
2016-09-29T02:41:34.670Z,0
2016-09-29T02:42:34.143Z,0
2016-09-29T02:43:33.883Z,0
2016-09-29T02:44:34.333Z,0
2016-09-29T02:45:33.972Z,0
2016-09-29T02:46:34.179Z,0
2016-09-29T02:47:33.933Z,0
2016-09-29T02:48:34.624Z,0
2016-09-29T02:49:34.148Z,0
2016-09-29T02:50:33.932Z,0
2016-09-29T02:51:33.589Z,0
2016-09-29T02:52:33.708Z,0
2016-09-29T02:53:34.509Z,0
2016-09-29T02:54:33.762Z,0
2016-09-29T02:55:33.387Z,0
2016-09-29T02:56:33.984Z,0
2016-09-29T02:57:34.145Z,0
2016-09-29T02:58:33.671Z,0
2016-09-29T02:59:33.207Z,0
2016-09-29T03:00:33.842Z,0
2016-09-29T03:01:34.059Z,0
2016-09-29T03:02:33.504Z,0
2016-09-29T03:03:33.722Z,0
2016-09-29T03:04:33.708Z,0
2016-09-29T03:05:34.346Z,0
2016-09-29T03:06:33.491Z,0
2016-09-29T03:07:33.436Z,0
2016-09-29T03:08:33.236Z,0
2016-09-29T03:09:33.542Z,0
2016-09-29T03:10:32.883Z,0
2016-09-29T03:11:32.766Z,0
2016-09-29T03:12:32.991Z,0
2016-09-29T03:13:33.150Z,0
2016-09-29T03:14:32.919Z,0
2016-09-29T03:15:33.062Z,0
2016-09-29T03:16:33.347Z,0
2016-09-29T03:17:32.453Z,0
2016-09-29T03:18:32.931Z,0
2016-09-29T03:19:32.672Z,0
2016-09-29T03:20:32.520Z,0
2016-09-29T03:21:32.199Z,0
2016-09-29T03:22:32.605Z,0
2016-09-29T03:23:32.729Z,0
2016-09-29T03:24:31.969Z,0
2016-09-29T03:25:32.088Z,0
2016-09-29T03:26:32.297Z,0
2016-09-29T03:27:32.287Z,0
2016-09-29T03:28:32.315Z,0
2016-09-29T03:29:32.691Z,0
2016-09-29T03:30:31.776Z,0
2016-09-29T03:31:32.041Z,0
2016-09-29T03:32:32.038Z,0
2016-09-29T03:33:31.758Z,0
2016-09-29T03:34:31.854Z,0
2016-09-29T03:35:32.182Z,0
2016-09-29T03:36:32.129Z,0
2016-09-29T03:37:32.216Z,0
2016-09-29T03:38:31.668Z,0
2016-09-29T03:39:31.616Z,0
2016-09-29T03:40:31.288Z,0
2016-09-29T03:41:32.023Z,0
2016-09-29T03:42:31.778Z,0
2016-09-29T03:43:30.907Z,0
2016-09-29T03:44:31.576Z,0
2016-09-29T03:45:30.504Z,0
2016-09-29T03:46:31.421Z,0
2016-09-29T03:47:31.329Z,0
2016-09-29T03:48:31.204Z,0
2016-09-29T03:49:31.503Z,0
2016-09-29T03:50:31.324Z,0
2016-09-29T03:51:31.093Z,0
2016-09-29T03:52:31.357Z,0
2016-09-29T03:53:31.047Z,0
2016-09-29T03:54:31.014Z,0
2016-09-29T03:55:30.849Z,0
2016-09-29T03:56:31.022Z,0
2016-09-29T03:57:29.989Z,0
2016-09-29T03:58:30.717Z,0
2016-09-29T03:59:30.800Z,0
2016-09-29T04:00:30.409Z,0
2016-09-29T04:01:30.915Z,0
2016-09-29T04:02:30.575Z,0
2016-09-29T04:03:30.595Z,0
2016-09-29T04:04:30.528Z,0
2016-09-29T04:05:29.943Z,0
2016-09-29T04:06:30.153Z,0
2016-09-29T04:07:29.469Z,0
2016-09-29T04:08:30.557Z,0
2016-09-29T04:09:29.991Z,0
2016-09-29T04:10:30.116Z,0
2016-09-29T04:11:30.455Z,0
2016-09-29T04:12:30.151Z,0
2016-09-29T04:13:30.303Z,0
2016-09-29T04:14:30.456Z,0
2016-09-29T04:15:30.325Z,0
2016-09-29T04:16:29.695Z,0
2016-09-29T04:17:29.906Z,0
2016-09-29T04:18:29.255Z,0
2016-09-29T04:19:29.660Z,0
2016-09-29T04:20:29.648Z,0
2016-09-29T04:21:29.542Z,0
2016-09-29T04:22:29.780Z,0
2016-09-29T04:23:29.319Z,0
2016-09-29T04:24:29.272Z,0
2016-09-29T04:25:29.429Z,0
2016-09-29T04:26:29.689Z,0
2016-09-29T04:27:29.316Z,0
2016-09-29T04:28:29.395Z,0
2016-09-29T04:29:29.759Z,0
2016-09-29T04:30:29.480Z,0
2016-09-29T04:31:29.260Z,0
2016-09-29T04:32:28.867Z,0
2016-09-29T04:33:29.193Z,0
2016-09-29T04:34:28.780Z,0
2016-09-29T04:35:28.771Z,0
2016-09-29T04:36:28.716Z,0
2016-09-29T04:37:29.003Z,0
2016-09-29T04:38:28.600Z,0
2016-09-29T04:39:28.555Z,0
2016-09-29T04:40:29.212Z,0
2016-09-29T04:41:28.799Z,0
2016-09-29T04:42:28.733Z,0
2016-09-29T04:43:28.674Z,0
2016-09-29T04:44:28.608Z,0
2016-09-29T04:45:28.374Z,0
2016-09-29T04:46:28.530Z,0
2016-09-29T04:47:28.487Z,0
2016-09-29T04:48:28.406Z,0
2016-09-29T04:49:28.795Z,0
2016-09-29T04:50:28.045Z,0
2016-09-29T04:51:27.974Z,0
2016-09-29T04:52:27.992Z,0
2016-09-29T04:53:28.175Z,0
2016-09-29T04:54:28.223Z,0
2016-09-29T04:55:27.781Z,0
2016-09-29T04:56:28.230Z,0
2016-09-29T04:57:27.997Z,0
2016-09-29T04:58:27.942Z,0
2016-09-29T04:59:27.596Z,0
2016-09-29T05:00:27.855Z,0
2016-09-29T05:01:27.816Z,0
2016-09-29T05:02:28.352Z,0
2016-09-29T05:03:27.722Z,0
2016-09-29T05:04:27.858Z,0
2016-09-29T05:05:27.306Z,0
2016-09-29T05:06:27.714Z,0
2016-09-29T05:07:27.527Z,0
2016-09-29T05:08:27.468Z,0
2016-09-29T05:09:27.447Z,0
2016-09-29T05:10:27.113Z,0
2016-09-29T05:11:27.400Z,0
2016-09-29T05:12:27.407Z,0
2016-09-29T05:13:27.109Z,0
2016-09-29T05:14:27.172Z,0
2016-09-29T05:15:26.813Z,0
2016-09-29T05:16:27.000Z,0
2016-09-29T05:17:26.733Z,0
2016-09-29T05:18:26.376Z,0
2016-09-29T05:19:27.150Z,0
2016-09-29T05:20:26.341Z,0
2016-09-29T05:21:25.978Z,0
2016-09-29T05:22:26.543Z,0
2016-09-29T05:23:26.761Z,0
2016-09-29T05:24:26.909Z,0
2016-09-29T05:25:26.331Z,0
2016-09-29T05:26:26.632Z,0
2016-09-29T05:27:26.968Z,0
2016-09-29T05:28:26.690Z,0
2016-09-29T05:29:26.046Z,0
2016-09-29T05:30:26.100Z,0
2016-09-29T05:31:26.363Z,0
2016-09-29T05:32:26.083Z,0
2016-09-29T05:33:26.267Z,0
2016-09-29T05:34:25.908Z,0
2016-09-29T05:35:26.066Z,0
2016-09-29T05:36:25.825Z,0
2016-09-29T05:37:25.765Z,0
2016-09-29T05:38:26.230Z,0
2016-09-29T05:39:25.051Z,0
2016-09-29T05:40:25.949Z,0
2016-09-29T05:41:25.909Z,0
2016-09-29T05:42:25.523Z,0
2016-09-29T05:43:25.892Z,0
2016-09-29T05:44:25.827Z,0
2016-09-29T05:45:25.421Z,0
2016-09-29T05:46:25.529Z,0
2016-09-29T05:47:25.593Z,0
2016-09-29T05:48:25.230Z,0
2016-09-29T05:49:25.229Z,0
2016-09-29T05:50:25.559Z,0
2016-09-29T05:51:24.820Z,0
2016-09-29T05:52:25.044Z,0
2016-09-29T05:53:25.408Z,5
2016-09-29T05:54:25.152Z,5
2016-09-29T05:55:25.197Z,5
2016-09-29T05:56:24.757Z,5
2016-09-29T05:57:24.836Z,5
2016-09-29T05:58:24.745Z,5
2016-09-29T05:59:25.036Z,5
2016-09-29T06:00:24.661Z,5
2016-09-29T06:01:24.933Z,5
2016-09-29T06:02:24.245Z,5
2016-09-29T06:03:23.903Z,5
2016-09-29T06:04:24.178Z,5
2016-09-29T06:05:24.729Z,5
2016-09-29T06:06:24.684Z,5
2016-09-29T06:07:25.033Z,5
2016-09-29T06:08:24.566Z,5
2016-09-29T06:09:24.538Z,5
2016-09-29T06:10:24.530Z,5
2016-09-29T06:11:24.437Z,5
2016-09-29T06:12:24.519Z,5
2016-09-29T06:13:24.108Z,5
2016-09-29T06:14:24.300Z,10
2016-09-29T06:15:23.998Z,10
2016-09-29T06:16:24.103Z,10
2016-09-29T06:17:24.137Z,10
2016-09-29T06:18:23.799Z,10
2016-09-29T06:19:23.751Z,10
2016-09-29T06:20:23.414Z,10
2016-09-29T06:21:23.044Z,10
2016-09-29T06:22:23.346Z,10
2016-09-29T06:23:23.522Z,15
2016-09-29T06:24:23.836Z,15
2016-09-29T06:25:23.775Z,15
2016-09-29T06:26:23.436Z,15
2016-09-29T06:27:23.070Z,15
2016-09-29T06:28:23.312Z,15
2016-09-29T06:29:23.257Z,20
2016-09-29T06:30:23.222Z,20
2016-09-29T06:31:23.515Z,20
2016-09-29T06:32:23.355Z,20
2016-09-29T06:33:22.485Z,20
2016-09-29T06:34:23.379Z,20
2016-09-29T06:35:23.033Z,20
2016-09-29T06:36:23.660Z,20
2016-09-29T06:37:23.198Z,20
2016-09-29T06:38:23.040Z,20
2016-09-29T06:39:22.882Z,25
2016-09-29T06:40:22.937Z,25
2016-09-29T06:41:23.282Z,25
2016-09-29T06:42:22.947Z,25
2016-09-29T06:43:22.945Z,25
2016-09-29T06:44:22.281Z,25
2016-09-29T06:45:23.040Z,25
2016-09-29T06:46:22.768Z,25
2016-09-29T06:47:22.308Z,25
2016-09-29T06:48:22.406Z,25
2016-09-29T06:49:22.351Z,25
2016-09-29T06:50:22.605Z,20
2016-09-29T06:51:22.528Z,20
2016-09-29T06:52:22.167Z,20
2016-09-29T06:53:22.119Z,20
2016-09-29T06:54:22.086Z,20
2016-09-29T06:55:22.328Z,25
2016-09-29T06:56:22.043Z,25
2016-09-29T06:57:22.255Z,25
2016-09-29T06:58:21.581Z,25
2016-09-29T06:59:21.836Z,30
2016-09-29T07:00:22.494Z,30
2016-09-29T07:01:22.100Z,30
2016-09-29T07:02:22.005Z,30
2016-09-29T07:03:21.955Z,30
2016-09-29T07:04:21.646Z,30
2016-09-29T07:05:21.931Z,30
2016-09-29T07:06:21.611Z,35
2016-09-29T07:07:21.678Z,35
2016-09-29T07:08:22.118Z,35
2016-09-29T07:09:22.300Z,35
2016-09-29T07:10:21.529Z,35
2016-09-29T07:11:21.279Z,35
2016-09-29T07:12:21.295Z,35
2016-09-29T07:13:20.884Z,35
2016-09-29T07:14:21.755Z,35
2016-09-29T07:15:21.371Z,40
2016-09-29T07:16:20.741Z,40
2016-09-29T07:17:20.977Z,40
2016-09-29T07:18:20.716Z,40
2016-09-29T07:19:20.609Z,40
2016-09-29T07:20:21.173Z,40
2016-09-29T07:21:21.133Z,45
2016-09-29T07:22:20.434Z,45
2016-09-29T07:23:21.422Z,45
2016-09-29T07:24:20.574Z,45
2016-09-29T07:25:21.228Z,45
2016-09-29T07:26:20.003Z,45
2016-09-29T07:27:24.218Z,45
2016-09-29T07:28:20.525Z,50
2016-09-29T07:29:20.693Z,50
2016-09-29T07:30:20.290Z,50
2016-09-29T07:31:20.275Z,50
2016-09-29T07:32:20.406Z,50
2016-09-29T07:33:20.069Z,45
2016-09-29T07:34:20.562Z,45
2016-09-29T07:35:20.544Z,55
2016-09-29T07:36:20.493Z,55
2016-09-29T07:37:20.630Z,55
2016-09-29T07:38:20.016Z,55
2016-09-29T07:39:20.282Z,55
2016-09-29T07:40:20.713Z,60
2016-09-29T07:41:20.096Z,55
2016-09-29T07:42:19.278Z,55
2016-09-29T07:43:19.868Z,60
2016-09-29T07:44:19.596Z,60
2016-09-29T07:45:19.842Z,60
2016-09-29T07:46:20.259Z,65
2016-09-29T07:47:19.820Z,65
2016-09-29T07:48:19.867Z,65
2016-09-29T07:49:19.717Z,65
2016-09-29T07:50:19.954Z,70
2016-09-29T07:51:19.704Z,70
2016-09-29T07:52:34.491Z,70
2016-09-29T07:53:19.705Z,70
2016-09-29T07:54:19.534Z,75
2016-09-29T07:55:19.796Z,75
2016-09-29T07:56:20.280Z,80
2016-09-29T07:57:19.840Z,85
2016-09-29T07:58:20.633Z,90
2016-09-29T07:59:19.445Z,75
2016-09-29T08:00:19.703Z,90
2016-09-29T08:01:19.722Z,90
2016-09-29T08:02:18.913Z,90
2016-09-29T08:03:18.550Z,55
2016-09-29T08:04:19.126Z,55
2016-09-29T08:05:19.470Z,45
2016-09-29T08:06:18.166Z,45
2016-09-29T08:07:18.983Z,50
2016-09-29T08:08:18.789Z,50
2016-09-29T08:09:18.717Z,50
2016-09-29T08:10:18.592Z,40
2016-09-29T08:11:18.755Z,45
2016-09-29T08:12:18.170Z,40
2016-09-29T08:13:18.539Z,35
2016-09-29T08:14:18.706Z,30
2016-09-29T08:15:18.338Z,25
2016-09-29T08:16:18.749Z,30
2016-09-29T08:17:18.660Z,30
2016-09-29T08:18:18.582Z,30
2016-09-29T08:19:18.727Z,30
2016-09-29T08:20:17.537Z,25
2016-09-29T08:21:18.437Z,25
2016-09-29T08:22:18.343Z,30
2016-09-29T08:23:17.572Z,30
2016-09-29T08:24:17.926Z,30
2016-09-29T08:25:17.630Z,30
2016-09-29T08:26:19.453Z,30
2016-09-29T08:27:18.078Z,35
2016-09-29T08:28:17.440Z,30
2016-09-29T08:29:18.143Z,25
2016-09-29T08:30:17.634Z,30
2016-09-29T08:31:17.148Z,30
2016-09-29T08:32:17.540Z,25
2016-09-29T08:33:17.820Z,25
2016-09-29T08:34:18.160Z,25
2016-09-29T08:35:17.137Z,25
2016-09-29T08:36:17.054Z,20
2016-09-29T08:37:17.501Z,20
2016-09-29T08:38:17.719Z,20
2016-09-29T08:39:17.501Z,20
2016-09-29T08:40:17.007Z,20
2016-09-29T08:41:17.224Z,20
2016-09-29T08:42:16.762Z,25
2016-09-29T08:43:17.095Z,25
2016-09-29T08:44:16.948Z,25
2016-09-29T08:45:17.017Z,25
2016-09-29T08:46:16.345Z,25
2016-09-29T08:47:16.833Z,25
2016-09-29T08:48:16.812Z,25
2016-09-29T08:49:16.742Z,25
2016-09-29T08:50:16.616Z,30
2016-09-29T08:51:16.342Z,30
2016-09-29T08:52:16.661Z,30
2016-09-29T08:53:16.589Z,35
2016-09-29T08:54:16.649Z,35
2016-09-29T08:55:16.495Z,35
2016-09-29T08:56:16.422Z,40
2016-09-29T08:57:16.676Z,40
2016-09-29T08:58:16.714Z,45
2016-09-29T08:59:16.356Z,50
2016-09-29T09:00:16.957Z,50
2016-09-29T09:01:16.390Z,50
2016-09-29T09:02:16.780Z,55
2016-09-29T09:03:15.949Z,50
2016-09-29T09:04:16.119Z,50
2016-09-29T09:05:16.088Z,50
2016-09-29T09:06:16.155Z,50
2016-09-29T09:07:15.898Z,50
2016-09-29T09:08:16.200Z,50
2016-09-29T09:09:15.768Z,50
2016-09-29T09:10:16.192Z,55
2016-09-29T09:11:16.362Z,50
2016-09-29T09:12:15.455Z,55
2016-09-29T09:13:16.343Z,50
2016-09-29T09:14:15.758Z,45
2016-09-29T09:15:16.036Z,45
2016-09-29T09:16:15.762Z,45
2016-09-29T09:17:15.489Z,50
2016-09-29T09:18:15.415Z,65
2016-09-29T09:19:15.461Z,60
2016-09-29T09:20:15.495Z,50
2016-09-29T09:21:15.345Z,55
2016-09-29T09:22:15.466Z,55
2016-09-29T09:23:15.560Z,60
2016-09-29T09:24:14.927Z,90
2016-09-29T09:25:15.800Z,70
2016-09-29T09:26:15.480Z,65
2016-09-29T09:27:15.091Z,65
2016-09-29T09:28:15.220Z,65
2016-09-29T09:29:15.348Z,60
2016-09-29T09:30:14.784Z,60
2016-09-29T09:31:15.228Z,70
2016-09-29T09:32:14.485Z,70
2016-09-29T09:33:14.734Z,75
2016-09-29T09:34:14.369Z,80
2016-09-29T09:35:15.443Z,80
2016-09-29T09:36:14.620Z,95
2016-09-29T09:37:14.796Z,100
2016-09-29T09:38:14.785Z,90
2016-09-29T09:39:14.421Z,150
2016-09-29T09:40:13.947Z,100
2016-09-29T09:41:47.164Z,85
2016-09-29T09:42:14.142Z,85
2016-09-29T09:43:20.443Z,135
2016-09-29T09:44:15.098Z,75
2016-09-29T09:45:14.521Z,80
2016-09-29T09:46:14.207Z,70
2016-09-29T09:47:14.568Z,55
2016-09-29T09:48:14.294Z,55
2016-09-29T09:49:13.960Z,55
2016-09-29T09:50:13.899Z,55
2016-09-29T09:51:13.882Z,55
2016-09-29T09:52:13.928Z,65
2016-09-29T09:53:13.871Z,60
2016-09-29T09:54:14.238Z,70
2016-09-29T09:55:14.249Z,75
2016-09-29T09:56:14.045Z,75
2016-09-29T09:57:13.604Z,110
2016-09-29T09:58:13.696Z,90
2016-09-29T09:59:13.445Z,85
2016-09-29T10:00:13.923Z,130
2016-09-29T10:01:13.112Z,140
2016-09-29T10:02:13.920Z,135
2016-09-29T10:03:13.014Z,125
2016-09-29T10:04:12.965Z,80
2016-09-29T10:05:13.202Z,130
2016-09-29T10:06:13.723Z,125
2016-09-29T10:07:13.664Z,95
2016-09-29T10:08:13.021Z,90
2016-09-29T10:09:14.270Z,120
2016-09-29T10:10:13.583Z,115
2016-09-29T10:11:12.658Z,120
2016-09-29T10:12:13.167Z,120
2016-09-29T10:13:13.177Z,110
2016-09-29T10:14:13.728Z,115
2016-09-29T10:15:12.820Z,120
2016-09-29T10:16:13.975Z,70
2016-09-29T10:17:12.717Z,70
2016-09-29T10:18:12.755Z,115
2016-09-29T10:19:12.575Z,65
2016-09-29T10:20:12.916Z,55
2016-09-29T10:21:13.082Z,65
2016-09-29T10:22:12.385Z,65
2016-09-29T10:23:12.462Z,65
2016-09-29T10:24:12.903Z,55
2016-09-29T10:25:12.838Z,70
2016-09-29T10:26:12.288Z,105
2016-09-29T10:27:12.414Z,100
2016-09-29T10:28:12.700Z,100
2016-09-29T10:29:12.344Z,100
2016-09-29T10:30:12.860Z,105
2016-09-29T10:31:12.179Z,110
2016-09-29T10:32:12.911Z,95
2016-09-29T10:33:13.324Z,100
2016-09-29T10:34:11.647Z,75
2016-09-29T10:35:12.195Z,65
2016-09-29T10:36:11.568Z,70
2016-09-29T10:37:12.730Z,105
2016-09-29T10:38:11.733Z,105
2016-09-29T10:39:11.704Z,95
2016-09-29T10:40:11.725Z,110
2016-09-29T10:41:11.672Z,110
2016-09-29T10:42:11.982Z,100
2016-09-29T10:43:11.912Z,105
2016-09-29T10:44:12.324Z,85
2016-09-29T10:45:11.825Z,105
2016-09-29T10:46:11.078Z,110
2016-09-29T10:47:12.161Z,110
2016-09-29T10:48:11.677Z,110
2016-09-29T10:49:11.617Z,115
2016-09-29T10:50:11.785Z,115
2016-09-29T10:51:11.050Z,120
2016-09-29T10:52:11.478Z,120
2016-09-29T10:53:11.497Z,95
2016-09-29T10:54:11.313Z,120
2016-09-29T10:55:11.072Z,120
2016-09-29T10:56:10.620Z,120
2016-09-29T10:57:10.562Z,125
2016-09-29T10:58:10.863Z,120
2016-09-29T10:59:10.998Z,115
2016-09-29T11:00:10.561Z,110
2016-09-29T11:01:10.814Z,110
2016-09-29T11:02:10.852Z,85
2016-09-29T11:03:10.551Z,110
2016-09-29T11:04:11.112Z,115
2016-09-29T11:05:11.073Z,80
2016-09-29T11:06:11.124Z,70
2016-09-29T11:07:10.219Z,50
2016-09-29T11:08:10.515Z,65
2016-09-29T11:09:10.714Z,105
2016-09-29T11:10:11.006Z,105
2016-09-29T11:11:10.064Z,60
2016-09-29T11:12:09.970Z,55
2016-09-29T11:13:10.543Z,45
2016-09-29T11:14:10.446Z,50
2016-09-29T11:15:10.519Z,55
2016-09-29T11:16:10.271Z,50
2016-09-29T11:17:10.347Z,55
2016-09-29T11:18:10.792Z,75
2016-09-29T11:19:09.928Z,115
2016-09-29T11:20:10.165Z,80
2016-09-29T11:21:09.885Z,115
2016-09-29T11:22:09.928Z,95
2016-09-29T11:23:09.710Z,80
2016-09-29T11:24:09.390Z,110
2016-09-29T11:25:09.332Z,110
2016-09-29T11:26:09.061Z,90
2016-09-29T11:27:09.275Z,90
2016-09-29T11:28:09.593Z,115
2016-09-29T11:29:09.712Z,110
2016-09-29T11:30:09.909Z,110
2016-09-29T11:31:09.455Z,105
2016-09-29T11:32:09.574Z,95
2016-09-29T11:33:09.004Z,70
2016-09-29T11:34:09.186Z,80
2016-09-29T11:35:09.067Z,105
2016-09-29T11:36:09.671Z,110
2016-09-29T11:37:09.480Z,110
2016-09-29T11:38:09.142Z,90
2016-09-29T11:39:09.104Z,115
2016-09-29T11:40:09.576Z,120
2016-09-29T11:41:09.256Z,115
2016-09-29T11:42:09.466Z,115
2016-09-29T11:43:09.139Z,105
2016-09-29T11:44:08.785Z,60
2016-09-29T11:45:09.068Z,55
2016-09-29T11:46:08.688Z,90
2016-09-29T11:47:08.696Z,120
2016-09-29T11:48:09.094Z,120
2016-09-29T11:49:08.304Z,120
2016-09-29T11:50:08.868Z,95
2016-09-29T11:51:08.839Z,110
2016-09-29T11:52:08.430Z,80
2016-09-29T11:53:08.434Z,85
2016-09-29T11:54:08.639Z,80
2016-09-29T11:55:08.688Z,90
2016-09-29T11:56:08.622Z,75
2016-09-29T11:57:08.489Z,75
2016-09-29T11:58:08.616Z,75
2016-09-29T11:59:08.524Z,70
2016-09-29T12:00:07.850Z,105
2016-09-29T12:01:08.151Z,100
2016-09-29T12:02:09.612Z,85
2016-09-29T12:03:08.008Z,75
2016-09-29T12:04:08.292Z,65
2016-09-29T12:05:07.842Z,65
2016-09-29T12:06:08.083Z,70
2016-09-29T12:07:09.874Z,70
2016-09-29T12:08:08.353Z,105
2016-09-29T12:09:07.880Z,140
2016-09-29T12:10:07.589Z,140
2016-09-29T12:11:07.621Z,135
2016-09-29T12:12:08.310Z,105
2016-09-29T12:13:07.547Z,85
2016-09-29T12:14:07.699Z,105
2016-09-29T12:15:07.830Z,135
2016-09-29T12:16:07.134Z,130
2016-09-29T12:17:07.402Z,125
2016-09-29T12:18:07.686Z,120
2016-09-29T12:19:07.059Z,105
2016-09-29T12:20:07.251Z,115
2016-09-29T12:21:07.358Z,110
2016-09-29T12:22:07.168Z,105
2016-09-29T12:23:07.379Z,110
2016-09-29T12:24:07.249Z,115
2016-09-29T12:25:07.041Z,100
2016-09-29T12:26:06.957Z,80
2016-09-29T12:27:06.919Z,95
2016-09-29T12:28:08.402Z,105
2016-09-29T12:29:07.458Z,105
2016-09-29T12:30:07.103Z,130
2016-09-29T12:31:07.089Z,125
2016-09-29T12:32:06.576Z,130
2016-09-29T12:33:06.986Z,125
2016-09-29T12:34:06.647Z,120
2016-09-29T12:35:07.580Z,100
2016-09-29T12:36:06.785Z,80
2016-09-29T12:37:06.818Z,105
2016-09-29T12:38:06.825Z,110
2016-09-29T12:39:06.684Z,130
2016-09-29T12:40:06.747Z,130
2016-09-29T12:41:06.377Z,130
2016-09-29T12:42:06.627Z,130
2016-09-29T12:43:06.793Z,125
2016-09-29T12:44:06.421Z,110
2016-09-29T12:45:06.188Z,125
2016-09-29T12:46:06.596Z,125
2016-09-29T12:47:06.586Z,120
2016-09-29T12:48:06.108Z,105
2016-09-29T12:49:05.995Z,125
2016-09-29T12:50:07.060Z,130
2016-09-29T12:51:05.657Z,130
2016-09-29T12:52:06.384Z,105
2016-09-29T12:53:06.552Z,95
2016-09-29T12:54:06.004Z,100
2016-09-29T12:55:05.542Z,105
2016-09-29T12:56:07.058Z,85
2016-09-29T12:57:06.224Z,75
2016-09-29T12:58:06.085Z,65
2016-09-29T12:59:05.419Z,65
2016-09-29T13:00:06.064Z,95
2016-09-29T13:01:05.547Z,70
2016-09-29T13:02:05.996Z,75
2016-09-29T13:03:05.728Z,90
2016-09-29T13:04:05.519Z,95
2016-09-29T13:05:05.583Z,90
2016-09-29T13:06:05.764Z,75
2016-09-29T13:07:05.815Z,70
2016-09-29T13:08:06.301Z,70
2016-09-29T13:09:04.791Z,95
2016-09-29T13:10:04.970Z,65
2016-09-29T13:11:05.056Z,75
2016-09-29T13:12:05.620Z,60
2016-09-29T13:13:05.335Z,80
2016-09-29T13:14:05.417Z,90
2016-09-29T13:15:05.201Z,105
2016-09-29T13:16:05.323Z,100
2016-09-29T13:18:06.056Z,115
2016-09-29T13:19:06.142Z,100
2016-09-29T13:20:04.679Z,75
2016-09-29T13:21:05.236Z,95
2016-09-29T13:22:04.074Z,75
2016-09-29T13:23:04.931Z,110
2016-09-29T13:24:04.861Z,95
2016-09-29T13:25:04.639Z,105
2016-09-29T13:26:04.352Z,90
2016-09-29T13:27:04.338Z,130
2016-09-29T13:28:04.555Z,100
2016-09-29T13:29:04.533Z,130
2016-09-29T13:30:04.438Z,130
2016-09-29T13:31:04.351Z,125
2016-09-29T13:32:04.543Z,95
2016-09-29T13:33:04.270Z,80
2016-09-29T13:34:04.384Z,70
2016-09-29T13:35:04.362Z,75
2016-09-29T13:36:03.843Z,70
2016-09-29T13:37:04.406Z,70
2016-09-29T13:38:04.725Z,85
2016-09-29T13:39:04.009Z,85
2016-09-29T13:40:04.148Z,120
2016-09-29T13:41:04.142Z,120
2016-09-29T13:42:04.215Z,95
2016-09-29T13:43:03.019Z,70
2016-09-29T13:44:03.909Z,55
2016-09-29T13:45:03.590Z,55
2016-09-29T13:46:03.847Z,50
2016-09-29T13:47:03.727Z,50
2016-09-29T13:48:04.407Z,55
2016-09-29T13:49:03.809Z,60
2016-09-29T13:50:03.422Z,55
2016-09-29T13:51:03.925Z,60
2016-09-29T13:52:03.432Z,55
2016-09-29T13:53:03.238Z,55
2016-09-29T13:54:02.536Z,60
2016-09-29T13:55:03.012Z,70
2016-09-29T13:56:03.363Z,65
2016-09-29T13:57:04.049Z,70
2016-09-29T13:58:03.224Z,65
2016-09-29T13:59:03.132Z,90
2016-09-29T14:00:02.897Z,65
2016-09-29T14:01:03.209Z,95
2016-09-29T14:02:03.378Z,85
2016-09-29T14:03:03.125Z,85
2016-09-29T14:04:03.212Z,70
2016-09-29T14:05:02.865Z,70
2016-09-29T14:06:02.941Z,80
2016-09-29T14:07:03.390Z,90
2016-09-29T14:08:02.452Z,85
2016-09-29T14:09:02.413Z,95
2016-09-29T14:10:02.888Z,90
2016-09-29T14:11:03.037Z,95
2016-09-29T14:12:02.293Z,75
2016-09-29T14:13:02.393Z,105
2016-09-29T14:14:02.022Z,105
2016-09-29T14:15:02.421Z,85
2016-09-29T14:16:02.748Z,115
2016-09-29T14:17:02.122Z,100
2016-09-29T14:18:02.104Z,105
2016-09-29T14:19:02.357Z,95
2016-09-29T14:20:01.845Z,90
2016-09-29T14:21:02.276Z,55
2016-09-29T14:22:02.452Z,60
2016-09-29T14:23:02.252Z,55
2016-09-29T14:24:01.855Z,65
2016-09-29T14:25:01.798Z,75